Airfield :
LOGIN :

Register | Disclaimer

   EN    FR    IT 

 










Legend :    VFR   Marginal VFR   IFR   Intensive IFR   Very Intensive IFR
Visi :
Ceiling :
>= 8 km
>= 3000ft
5 to 8 km
1000 to 3000 ft
1500m to 5 km
500 to 1000 ft
800 to 1500m
200 to 500 ft
< 800m
< 200 ft
Symbols :   Thunderstorms  Fog  Heavy snow  Heavy precipitations  Wind > 20 kt
SIGMETs :     Misc.  Thunderstorms  Icing  Turbulence  Mountain Waves  Volcanic Ashes







- Airport Elevation : 17 ft
- IATA code : GRQ


EHGG - Groningen Eelde

CURRENT METAR :
  • 222225Z AUTO 27006KT 240V300 9999 NSC 11/08 Q1025

EXPIRED METARs :
  • 222155Z AUTO 27006KT 240V300 9999 FEW029 10/07 Q1026
  • 222125Z AUTO 29006KT 240V310 9999 FEW026 10/07 Q1026
  • 222055Z AUTO 30007KT 9999 FEW029 11/08 Q1026
  • 222025Z AUTO 30009KT 260V340 9999 SCT032 BKN036 12/08 Q1025 NOSIG
  • 221955Z AUTO 30010KT 260V330 9999 FEW020 SCT023 BKN028 12/08 Q1025 NOSIG

TAF COR TAF EHGG
Valid from the 22 at 18:00 until the 24 at 00:00 UTC


221728Z 2218/2324 32014KT 9999 BKN040
BECMG 2219/2222 28008KT
PROB30 2301/2312 5000 -RADZ SCT012 BKN014
BECMG 2309/2312 31013KT
No reported NOTAMs for that airfield.



MET'MAP, your aeronautical weather chart ! - Copyright ORBIFLY December 2007 - Disclaimer

ORBIFLY MET'MAP TEAM :

Programming & Development : Alexandra Zaïnal
Concept & Development : Baudouin d'Aumeries
Co-Development & Prog : Marc-Olivier Méhu
Technical & hardware support : Manuel Goepfert

Contact : metmap@orbifly.com




SOURCES & CREDITS :

   NOAA